DAL1013 KABQ-KLAX
Flight info
| Callsign | DAL1013 |
|---|---|
| Flight time | 1h 32m |
| Altitude | 40000 |
| Route | RDRNR3 ZUN J6 DRK HIPPI GABBL HLYWD1 |
| Aircraft | A359/H-SDE2E3GHIJ3J4J5LM1ORWXY/LB1D1 |
Departure
| Time | 2026-05-01 12:07 |
|---|---|
| Airport | Albuquerque International Sunport (KABQ) |
Arrival
| Time | 2026-05-01 13:39 |
|---|---|
| Airport | Los Angeles International Airport (KLAX) |
| Time | Latitude | Longitude | Altitude | Speed | Heading |
|---|---|---|---|---|---|
| 2026-05-01 11:54 | 35.04679 | -106.61641 | 5327 ft | 0 kts | 339° |
| 2026-05-01 12:00 | 35.04674 | -106.61639 | 5327 ft | 2 kts | 337° |
| 2026-05-01 12:00 | 35.04659 | -106.61631 | 5312 ft | 2 kts | 333° |
| 2026-05-01 12:00 | 35.04638 | -106.61603 | 5325 ft | 2 kts | 270° |
| 2026-05-01 12:01 | 35.04638 | -106.61600 | 5325 ft | 0 kts | 270° |
| 2026-05-01 12:01 | 35.04638 | -106.61597 | 5319 ft | 1 kts | 272° |
| 2026-05-01 12:01 | 35.04638 | -106.61589 | 5321 ft | 1 kts | 284° |
| 2026-05-01 12:01 | 35.04636 | -106.61582 | 5321 ft | 1 kts | 295° |
| 2026-05-01 12:02 | 35.04624 | -106.61564 | 5317 ft | 3 kts | 333° |
| 2026-05-01 12:02 | 35.04603 | -106.61560 | 5317 ft | 3 kts | 18° |
| 2026-05-01 12:02 | 35.04582 | -106.61569 | 5317 ft | 3 kts | 20° |
| 2026-05-01 12:02 | 35.04566 | -106.61561 | 5316 ft | 3 kts | 267° |
| 2026-05-01 12:03 | 35.04569 | -106.61546 | 5319 ft | 0 kts | 243° |
| 2026-05-01 12:03 | 35.04563 | -106.61583 | 5319 ft | 12 kts | 262° |
| 2026-05-01 12:03 | 35.04558 | -106.61692 | 5327 ft | 13 kts | 268° |
| 2026-05-01 12:04 | 35.04556 | -106.61803 | 5320 ft | 13 kts | 269° |
| 2026-05-01 12:04 | 35.04556 | -106.61918 | 5319 ft | 14 kts | 271° |
| 2026-05-01 12:04 | 35.04558 | -106.62021 | 5327 ft | 12 kts | 271° |
| 2026-05-01 12:04 | 35.04544 | -106.62105 | 5321 ft | 6 kts | 236° |
| 2026-05-01 12:05 | 35.04520 | -106.62124 | 5320 ft | 3 kts | 206° |
| 2026-05-01 12:05 | 35.04444 | -106.62097 | 5320 ft | 5 kts | 111° |
| 2026-05-01 12:05 | 35.04437 | -106.62056 | 5322 ft | 5 kts | 90° |
| 2026-05-01 12:06 | 35.04436 | -106.62012 | 5323 ft | 6 kts | 91° |
| 2026-05-01 12:06 | 35.04434 | -106.61788 | 5327 ft | 58 kts | 90° |
| 2026-05-01 12:06 | 35.04430 | -106.61019 | 5320 ft | 121 kts | 91° |
| 2026-05-01 12:06 | 35.04393 | -106.59797 | 5587 ft | 152 kts | 92° |
| 2026-05-01 12:07 | 35.04310 | -106.58557 | 6499 ft | 147 kts | 94° |
| 2026-05-01 12:07 | 35.04276 | -106.57245 | 6868 ft | 163 kts | 89° |
| 2026-05-01 12:07 | 35.04299 | -106.55801 | 7123 ft | 182 kts | 89° |
| 2026-05-01 12:07 | 35.04407 | -106.54176 | 7367 ft | 205 kts | 78° |
| 2026-05-01 12:08 | 35.05170 | -106.52598 | 7541 ft | 234 kts | 41° |
| 2026-05-01 12:08 | 35.06750 | -106.51828 | 7856 ft | 262 kts | 5° |
| 2026-05-01 12:08 | 35.08564 | -106.52344 | 8408 ft | 279 kts | 331° |
| 2026-05-01 12:08 | 35.09911 | -106.54042 | 9180 ft | 283 kts | 297° |
| 2026-05-01 12:09 | 35.10315 | -106.56361 | 10095 ft | 282 kts | 265° |
| 2026-05-01 12:09 | 35.09914 | -106.58738 | 10689 ft | 294 kts | 256° |
| 2026-05-01 12:09 | 35.09484 | -106.61262 | 11063 ft | 312 kts | 262° |
| 2026-05-01 12:09 | 35.09248 | -106.63973 | 11439 ft | 330 kts | 267° |
| 2026-05-01 12:10 | 35.09151 | -106.66838 | 11815 ft | 345 kts | 270° |
| 2026-05-01 12:10 | 35.09147 | -106.72844 | 13018 ft | 359 kts | 272° |
| 2026-05-01 12:10 | 35.09231 | -106.75911 | 13708 ft | 363 kts | 277° |
| 2026-05-01 12:11 | 35.10053 | -106.81992 | 14998 ft | 369 kts | 281° |
| 2026-05-01 12:11 | 35.10526 | -106.85087 | 15634 ft | 372 kts | 281° |
| 2026-05-01 12:11 | 35.10937 | -106.88228 | 16265 ft | 376 kts | 275° |
| 2026-05-01 12:12 | 35.10841 | -106.91434 | 16918 ft | 380 kts | 261° |
| 2026-05-01 12:12 | 35.10280 | -106.94596 | 17574 ft | 383 kts | 256° |
| 2026-05-01 12:12 | 35.09632 | -106.97763 | 18224 ft | 386 kts | 256° |
| 2026-05-01 12:12 | 35.08975 | -107.00959 | 18818 ft | 388 kts | 256° |
| 2026-05-01 12:13 | 35.08327 | -107.04134 | 19378 ft | 391 kts | 256° |
| 2026-05-01 12:13 | 35.07672 | -107.07367 | 19957 ft | 394 kts | 256° |
| 2026-05-01 12:13 | 35.07010 | -107.10638 | 20554 ft | 397 kts | 257° |
| 2026-05-01 12:13 | 35.06345 | -107.13927 | 21147 ft | 400 kts | 257° |
| 2026-05-01 12:14 | 35.05675 | -107.17242 | 21729 ft | 404 kts | 257° |
| 2026-05-01 12:14 | 35.04999 | -107.20583 | 22324 ft | 407 kts | 257° |
| 2026-05-01 12:14 | 35.04320 | -107.23946 | 22914 ft | 410 kts | 257° |
| 2026-05-01 12:14 | 35.03792 | -107.27379 | 23513 ft | 412 kts | 264° |
| 2026-05-01 12:15 | 35.03601 | -107.30843 | 24007 ft | 414 kts | 268° |
| 2026-05-01 12:15 | 35.03497 | -107.34366 | 24488 ft | 417 kts | 268° |
| 2026-05-01 12:15 | 35.03396 | -107.37917 | 24980 ft | 420 kts | 268° |
| 2026-05-01 12:15 | 35.03290 | -107.41486 | 25474 ft | 422 kts | 268° |
| 2026-05-01 12:16 | 35.03180 | -107.45076 | 25975 ft | 425 kts | 268° |
| 2026-05-01 12:16 | 35.03066 | -107.48682 | 26460 ft | 427 kts | 268° |
| 2026-05-01 12:16 | 35.02950 | -107.52309 | 26957 ft | 429 kts | 267° |
| 2026-05-01 12:16 | 35.02832 | -107.55963 | 27456 ft | 432 kts | 267° |
| 2026-05-01 12:17 | 35.02712 | -107.59634 | 27960 ft | 434 kts | 267° |
| 2026-05-01 12:17 | 35.02589 | -107.63331 | 28448 ft | 437 kts | 267° |
| 2026-05-01 12:17 | 35.02465 | -107.67043 | 28938 ft | 439 kts | 267° |
| 2026-05-01 12:17 | 35.02339 | -107.70781 | 29395 ft | 442 kts | 267° |
| 2026-05-01 12:18 | 35.02212 | -107.74536 | 29856 ft | 444 kts | 267° |
| 2026-05-01 12:18 | 35.02082 | -107.78312 | 30258 ft | 447 kts | 267° |
| 2026-05-01 12:18 | 35.01950 | -107.82112 | 30629 ft | 449 kts | 267° |
| 2026-05-01 12:18 | 35.01817 | -107.85921 | 30993 ft | 451 kts | 267° |
| 2026-05-01 12:19 | 35.01682 | -107.89748 | 31340 ft | 452 kts | 267° |
| 2026-05-01 12:19 | 35.01546 | -107.93577 | 31667 ft | 454 kts | 267° |
| 2026-05-01 12:19 | 35.01407 | -107.97439 | 31980 ft | 455 kts | 267° |
| 2026-05-01 12:19 | 35.01267 | -108.01300 | 32304 ft | 456 kts | 267° |
| 2026-05-01 12:20 | 35.01126 | -108.05155 | 32760 ft | 453 kts | 267° |
| 2026-05-01 12:20 | 35.00985 | -108.08979 | 33250 ft | 451 kts | 267° |
| 2026-05-01 12:20 | 35.00844 | -108.12794 | 33701 ft | 448 kts | 267° |
| 2026-05-01 12:20 | 35.00702 | -108.16570 | 34101 ft | 446 kts | 267° |
| 2026-05-01 12:21 | 35.00559 | -108.20349 | 34428 ft | 445 kts | 267° |
| 2026-05-01 12:21 | 35.00416 | -108.24115 | 34725 ft | 444 kts | 267° |
| 2026-05-01 12:21 | 35.00271 | -108.27872 | 35010 ft | 443 kts | 267° |
| 2026-05-01 12:21 | 35.00126 | -108.31625 | 35302 ft | 443 kts | 267° |
| 2026-05-01 12:22 | 34.99980 | -108.35368 | 35615 ft | 442 kts | 267° |
| 2026-05-01 12:22 | 34.99833 | -108.39104 | 35903 ft | 441 kts | 267° |
| 2026-05-01 12:22 | 34.99685 | -108.42839 | 36196 ft | 440 kts | 268° |
| 2026-05-01 12:22 | 34.99536 | -108.46563 | 36463 ft | 440 kts | 268° |
| 2026-05-01 12:23 | 34.99386 | -108.50291 | 36734 ft | 439 kts | 268° |
| 2026-05-01 12:23 | 34.99235 | -108.54006 | 37013 ft | 439 kts | 268° |
| 2026-05-01 12:23 | 34.99083 | -108.57724 | 37330 ft | 438 kts | 268° |
| 2026-05-01 12:23 | 34.98930 | -108.61429 | 37603 ft | 437 kts | 268° |
| 2026-05-01 12:24 | 34.98779 | -108.65079 | 37889 ft | 437 kts | 268° |
| 2026-05-01 12:24 | 34.98624 | -108.68775 | 38169 ft | 436 kts | 268° |
| 2026-05-01 12:24 | 34.98469 | -108.72469 | 38440 ft | 435 kts | 268° |
| 2026-05-01 12:24 | 34.98312 | -108.76148 | 38708 ft | 435 kts | 268° |
| 2026-05-01 12:25 | 34.98155 | -108.79829 | 38905 ft | 435 kts | 268° |
| 2026-05-01 12:25 | 34.97837 | -108.87198 | 39254 ft | 435 kts | 268° |
| 2026-05-01 12:25 | 34.97677 | -108.90871 | 39475 ft | 434 kts | 268° |
| 2026-05-01 12:26 | 34.97515 | -108.94547 | 39581 ft | 435 kts | 268° |
| 2026-05-01 12:26 | 34.97188 | -109.01920 | 39803 ft | 436 kts | 268° |
| 2026-05-01 12:26 | 34.97023 | -109.05610 | 39921 ft | 436 kts | 268° |
| 2026-05-01 12:27 | 34.96518 | -109.16710 | 39953 ft | 438 kts | 268° |
| 2026-05-01 12:28 | 34.95805 | -109.27818 | 39880 ft | 438 kts | 266° |
| 2026-05-01 12:29 | 34.95026 | -109.38902 | 39829 ft | 437 kts | 267° |
| 2026-05-01 12:29 | 34.94272 | -109.49972 | 39839 ft | 437 kts | 267° |
| 2026-05-01 12:30 | 34.93516 | -109.61020 | 39846 ft | 436 kts | 267° |
| 2026-05-01 12:31 | 34.93005 | -109.68395 | 39852 ft | 436 kts | 267° |
| 2026-05-01 12:31 | 34.92491 | -109.75755 | 39852 ft | 436 kts | 267° |
| 2026-05-01 12:32 | 34.91972 | -109.83103 | 39860 ft | 436 kts | 267° |
| 2026-05-01 12:32 | 34.91189 | -109.94081 | 39868 ft | 435 kts | 267° |
| 2026-05-01 12:33 | 34.90659 | -110.01422 | 39871 ft | 435 kts | 267° |
| 2026-05-01 12:33 | 34.90126 | -110.08761 | 39882 ft | 435 kts | 267° |
| 2026-05-01 12:34 | 34.89588 | -110.16088 | 39883 ft | 434 kts | 267° |
| 2026-05-01 12:34 | 34.89047 | -110.23412 | 39893 ft | 434 kts | 267° |
| 2026-05-01 12:35 | 34.88502 | -110.30731 | 39895 ft | 434 kts | 267° |
| 2026-05-01 12:35 | 34.87952 | -110.38043 | 39940 ft | 433 kts | 267° |
| 2026-05-01 12:36 | 34.87399 | -110.45347 | 39959 ft | 433 kts | 267° |
| 2026-05-01 12:36 | 34.86842 | -110.52645 | 39986 ft | 433 kts | 267° |
| 2026-05-01 12:37 | 34.86281 | -110.59938 | 40006 ft | 432 kts | 267° |
| 2026-05-01 12:37 | 34.85714 | -110.67226 | 40017 ft | 432 kts | 267° |
| 2026-05-01 12:38 | 34.85240 | -110.73281 | 40015 ft | 432 kts | 267° |
| 2026-05-01 12:38 | 34.84667 | -110.80565 | 40009 ft | 432 kts | 267° |
| 2026-05-01 12:39 | 34.84089 | -110.87840 | 39997 ft | 432 kts | 267° |
| 2026-05-01 12:39 | 34.83507 | -110.95110 | 39972 ft | 432 kts | 267° |
| 2026-05-01 12:40 | 34.82922 | -111.02377 | 39955 ft | 432 kts | 267° |
| 2026-05-01 12:40 | 34.82332 | -111.09646 | 39931 ft | 431 kts | 267° |
| 2026-05-01 12:41 | 34.81738 | -111.16905 | 39929 ft | 431 kts | 267° |
| 2026-05-01 12:41 | 34.81140 | -111.24166 | 39934 ft | 431 kts | 267° |
| 2026-05-01 12:42 | 34.80537 | -111.31425 | 39931 ft | 431 kts | 267° |
| 2026-05-01 12:42 | 34.79931 | -111.38675 | 39941 ft | 431 kts | 267° |
| 2026-05-01 12:43 | 34.79321 | -111.45921 | 39961 ft | 431 kts | 267° |
| 2026-05-01 12:43 | 34.78707 | -111.53166 | 39985 ft | 431 kts | 267° |
| 2026-05-01 12:44 | 34.78088 | -111.60410 | 40012 ft | 431 kts | 267° |
| 2026-05-01 12:45 | 34.76838 | -111.74894 | 40044 ft | 431 kts | 267° |
| 2026-05-01 12:45 | 34.76207 | -111.82133 | 40043 ft | 430 kts | 267° |
| 2026-05-01 12:46 | 34.75575 | -111.89321 | 40028 ft | 430 kts | 267° |
| 2026-05-01 12:46 | 34.74932 | -111.96588 | 40002 ft | 430 kts | 267° |
| 2026-05-01 12:47 | 34.74288 | -112.03814 | 39971 ft | 429 kts | 267° |
| 2026-05-01 12:47 | 34.73641 | -112.11028 | 39945 ft | 429 kts | 267° |
| 2026-05-01 12:48 | 34.72988 | -112.18246 | 39984 ft | 430 kts | 267° |
| 2026-05-01 12:48 | 34.72380 | -112.24965 | 40010 ft | 429 kts | 267° |
| 2026-05-01 12:49 | 34.71721 | -112.32171 | 40039 ft | 429 kts | 267° |
| 2026-05-01 12:49 | 34.71059 | -112.39372 | 40050 ft | 429 kts | 267° |
| 2026-05-01 12:50 | 34.70392 | -112.46565 | 40040 ft | 428 kts | 267° |
| 2026-05-01 12:50 | 34.69664 | -112.53752 | 40039 ft | 429 kts | 266° |
| 2026-05-01 12:51 | 34.68794 | -112.60930 | 40001 ft | 429 kts | 265° |
| 2026-05-01 12:52 | 34.67486 | -112.71689 | 39945 ft | 429 kts | 265° |
| 2026-05-01 12:52 | 34.66209 | -112.82437 | 39883 ft | 429 kts | 265° |
| 2026-05-01 12:53 | 34.64926 | -112.93185 | 39854 ft | 428 kts | 265° |
| 2026-05-01 12:54 | 34.64066 | -113.00340 | 39851 ft | 429 kts | 265° |
| 2026-05-01 12:54 | 34.62767 | -113.11073 | 39841 ft | 428 kts | 265° |
| 2026-05-01 12:55 | 34.61463 | -113.21795 | 39831 ft | 428 kts | 265° |
| 2026-05-01 12:56 | 34.60587 | -113.28933 | 39825 ft | 427 kts | 265° |
| 2026-05-01 12:56 | 34.59708 | -113.36068 | 39824 ft | 427 kts | 265° |
| 2026-05-01 12:57 | 34.58824 | -113.43197 | 39821 ft | 427 kts | 265° |
| 2026-05-01 12:57 | 34.57493 | -113.53871 | 39816 ft | 427 kts | 265° |
| 2026-05-01 12:58 | 34.56599 | -113.60997 | 39811 ft | 427 kts | 265° |
| 2026-05-01 12:59 | 34.55355 | -113.71676 | 39809 ft | 426 kts | 266° |
| 2026-05-01 12:59 | 34.54185 | -113.82358 | 39805 ft | 426 kts | 266° |
| 2026-05-01 13:00 | 34.52993 | -113.93025 | 39802 ft | 426 kts | 266° |
| 2026-05-01 13:01 | 34.51787 | -114.03686 | 39822 ft | 425 kts | 266° |
| 2026-05-01 13:02 | 34.49761 | -114.14228 | 39845 ft | 429 kts | 260° |
| 2026-05-01 13:07 | 34.33272 | -114.90971 | 39818 ft | 427 kts | 260° |
| 2026-05-01 13:08 | 34.31758 | -114.97912 | 39819 ft | 427 kts | 260° |
| 2026-05-01 13:08 | 34.30232 | -115.04850 | 39818 ft | 427 kts | 260° |
| 2026-05-01 13:09 | 34.28705 | -115.11781 | 39819 ft | 426 kts | 260° |
| 2026-05-01 13:09 | 34.27177 | -115.18701 | 39821 ft | 426 kts | 259° |
| 2026-05-01 13:10 | 34.25664 | -115.25620 | 39825 ft | 425 kts | 260° |
| 2026-05-01 13:10 | 34.24200 | -115.32539 | 39834 ft | 425 kts | 260° |
| 2026-05-01 13:11 | 34.22728 | -115.39449 | 39829 ft | 424 kts | 260° |
| 2026-05-01 13:11 | 34.21252 | -115.46350 | 39679 ft | 424 kts | 260° |
| 2026-05-01 13:11 | 34.20512 | -115.49794 | 39455 ft | 423 kts | 259° |
| 2026-05-01 13:12 | 34.19776 | -115.53219 | 39221 ft | 422 kts | 260° |
| 2026-05-01 13:12 | 34.19038 | -115.56647 | 38991 ft | 420 kts | 260° |
| 2026-05-01 13:12 | 34.18305 | -115.60038 | 38619 ft | 415 kts | 260° |
| 2026-05-01 13:12 | 34.17578 | -115.63407 | 38064 ft | 414 kts | 260° |
| 2026-05-01 13:13 | 34.16856 | -115.66755 | 37534 ft | 411 kts | 260° |
| 2026-05-01 13:13 | 34.16296 | -115.70072 | 37023 ft | 405 kts | 266° |
| 2026-05-01 13:13 | 34.15938 | -115.73432 | 36492 ft | 403 kts | 267° |
| 2026-05-01 13:13 | 34.15619 | -115.76783 | 35978 ft | 402 kts | 267° |
| 2026-05-01 13:14 | 34.15301 | -115.80131 | 35448 ft | 401 kts | 268° |
| 2026-05-01 13:14 | 34.14981 | -115.83482 | 34920 ft | 402 kts | 268° |
| 2026-05-01 13:14 | 34.14657 | -115.86851 | 34319 ft | 406 kts | 268° |
| 2026-05-01 13:14 | 34.14328 | -115.90250 | 33672 ft | 410 kts | 268° |
| 2026-05-01 13:15 | 34.13995 | -115.93686 | 32994 ft | 414 kts | 268° |
| 2026-05-01 13:15 | 34.13657 | -115.97152 | 32337 ft | 418 kts | 268° |
| 2026-05-01 13:15 | 34.13316 | -116.00654 | 31666 ft | 422 kts | 268° |
| 2026-05-01 13:15 | 34.12972 | -116.04190 | 30980 ft | 426 kts | 268° |
| 2026-05-01 13:16 | 34.12621 | -116.07762 | 30263 ft | 430 kts | 268° |
| 2026-05-01 13:16 | 34.12267 | -116.11349 | 29575 ft | 430 kts | 268° |
| 2026-05-01 13:16 | 34.11913 | -116.14921 | 29062 ft | 427 kts | 268° |
| 2026-05-01 13:17 | 34.10861 | -116.25486 | 27504 ft | 419 kts | 268° |
| 2026-05-01 13:17 | 34.10515 | -116.28965 | 26972 ft | 416 kts | 268° |
| 2026-05-01 13:18 | 34.09799 | -116.35852 | 25949 ft | 412 kts | 267° |
| 2026-05-01 13:18 | 34.09431 | -116.39245 | 25704 ft | 402 kts | 267° |
| 2026-05-01 13:18 | 34.09073 | -116.42537 | 25539 ft | 390 kts | 267° |
| 2026-05-01 13:18 | 34.08726 | -116.45737 | 25399 ft | 379 kts | 267° |
| 2026-05-01 13:19 | 34.08390 | -116.48846 | 25241 ft | 369 kts | 267° |
| 2026-05-01 13:19 | 34.08062 | -116.51877 | 25091 ft | 360 kts | 267° |
| 2026-05-01 13:19 | 34.07423 | -116.57809 | 24317 ft | 355 kts | 267° |
| 2026-05-01 13:20 | 34.07119 | -116.60723 | 23935 ft | 353 kts | 267° |
| 2026-05-01 13:20 | 34.06851 | -116.63661 | 23542 ft | 352 kts | 268° |
| 2026-05-01 13:20 | 34.06587 | -116.66592 | 23113 ft | 350 kts | 268° |
| 2026-05-01 13:21 | 34.06056 | -116.72373 | 22333 ft | 345 kts | 268° |
| 2026-05-01 13:21 | 34.05790 | -116.75244 | 21944 ft | 344 kts | 268° |
| 2026-05-01 13:21 | 34.05523 | -116.78104 | 21558 ft | 343 kts | 267° |
| 2026-05-01 13:21 | 34.05257 | -116.80952 | 21174 ft | 341 kts | 268° |
| 2026-05-01 13:22 | 34.04991 | -116.83778 | 20794 ft | 338 kts | 267° |
| 2026-05-01 13:22 | 34.04726 | -116.86594 | 20430 ft | 338 kts | 268° |
| 2026-05-01 13:22 | 34.04460 | -116.89409 | 20081 ft | 338 kts | 268° |
| 2026-05-01 13:22 | 34.04219 | -116.92277 | 19779 ft | 352 kts | 270° |
| 2026-05-01 13:23 | 34.04066 | -116.95321 | 19693 ft | 375 kts | 270° |
| 2026-05-01 13:23 | 34.03914 | -116.98553 | 19663 ft | 397 kts | 270° |
| 2026-05-01 13:23 | 34.03760 | -117.01873 | 19372 ft | 395 kts | 270° |
| 2026-05-01 13:23 | 34.03607 | -117.05162 | 18856 ft | 393 kts | 270° |
| 2026-05-01 13:24 | 34.03508 | -117.07338 | 18522 ft | 392 kts | 270° |
| 2026-05-01 13:24 | 34.03313 | -117.11710 | 17773 ft | 390 kts | 270° |
| 2026-05-01 13:24 | 34.03217 | -117.13865 | 17408 ft | 388 kts | 270° |
| 2026-05-01 13:25 | 34.02879 | -117.21418 | 16163 ft | 384 kts | 270° |
| 2026-05-01 13:25 | 34.02783 | -117.23540 | 15801 ft | 382 kts | 270° |
| 2026-05-01 13:25 | 34.02639 | -117.26731 | 15263 ft | 381 kts | 269° |
| 2026-05-01 13:25 | 34.02495 | -117.29918 | 14732 ft | 380 kts | 269° |
| 2026-05-01 13:26 | 34.02350 | -117.33097 | 14193 ft | 379 kts | 269° |
| 2026-05-01 13:26 | 34.02205 | -117.36265 | 13639 ft | 378 kts | 269° |
| 2026-05-01 13:26 | 34.02059 | -117.39430 | 13072 ft | 377 kts | 269° |
| 2026-05-01 13:26 | 34.01913 | -117.42562 | 12596 ft | 372 kts | 268° |
| 2026-05-01 13:27 | 34.01769 | -117.45630 | 12324 ft | 361 kts | 268° |
| 2026-05-01 13:27 | 34.01628 | -117.48601 | 12076 ft | 349 kts | 268° |
| 2026-05-01 13:27 | 34.01358 | -117.54273 | 11618 ft | 329 kts | 268° |
| 2026-05-01 13:28 | 34.01103 | -117.59607 | 11177 ft | 311 kts | 268° |
| 2026-05-01 13:28 | 34.00980 | -117.62188 | 10849 ft | 307 kts | 268° |
| 2026-05-01 13:29 | 34.00735 | -117.67274 | 10213 ft | 299 kts | 267° |
| 2026-05-01 13:29 | 34.00368 | -117.72234 | 9704 ft | 298 kts | 263° |
| 2026-05-01 13:30 | 33.99360 | -117.81983 | 8377 ft | 289 kts | 263° |
| 2026-05-01 13:31 | 33.98918 | -117.86467 | 7845 ft | 282 kts | 264° |
| 2026-05-01 13:31 | 33.98266 | -117.93147 | 7323 ft | 257 kts | 264° |
| 2026-05-01 13:32 | 33.97851 | -117.97317 | 6969 ft | 242 kts | 264° |
| 2026-05-01 13:33 | 33.97285 | -118.03017 | 6556 ft | 218 kts | 264° |
| 2026-05-01 13:33 | 33.96948 | -118.06400 | 6288 ft | 199 kts | 264° |
| 2026-05-01 13:34 | 33.96617 | -118.09735 | 5631 ft | 200 kts | 264° |
| 2026-05-01 13:34 | 33.96287 | -118.13036 | 5084 ft | 195 kts | 265° |
| 2026-05-01 13:35 | 33.95966 | -118.16254 | 4200 ft | 194 kts | 265° |
| 2026-05-01 13:35 | 33.95810 | -118.17874 | 3717 ft | 195 kts | 264° |
| 2026-05-01 13:35 | 33.95478 | -118.21104 | 2823 ft | 192 kts | 263° |
| 2026-05-01 13:36 | 33.95317 | -118.22683 | 2567 ft | 187 kts | 263° |
| 2026-05-01 13:36 | 33.95166 | -118.24197 | 2407 ft | 175 kts | 263° |
| 2026-05-01 13:36 | 33.94894 | -118.26893 | 1982 ft | 151 kts | 262° |
| 2026-05-01 13:37 | 33.94770 | -118.28122 | 1794 ft | 146 kts | 262° |
| 2026-05-01 13:37 | 33.94646 | -118.29336 | 1602 ft | 146 kts | 262° |
| 2026-05-01 13:37 | 33.94522 | -118.30553 | 1402 ft | 146 kts | 262° |
| 2026-05-01 13:37 | 33.94399 | -118.31766 | 1205 ft | 146 kts | 262° |
| 2026-05-01 13:38 | 33.94154 | -118.34182 | 821 ft | 145 kts | 262° |
| 2026-05-01 13:38 | 33.94038 | -118.35388 | 636 ft | 145 kts | 262° |
| 2026-05-01 13:38 | 33.93921 | -118.36593 | 422 ft | 145 kts | 260° |
| 2026-05-01 13:39 | 33.93782 | -118.37792 | 240 ft | 146 kts | 262° |
| 2026-05-01 13:39 | 33.93661 | -118.39016 | 111 ft | 141 kts | 263° |
| 2026-05-01 13:39 | 33.93620 | -118.39639 | 105 ft | 8 kts | 249° |
| 2026-05-01 13:39 | 33.93605 | -118.39740 | 104 ft | 16 kts | 266° |
| 2026-05-01 13:40 | 33.93632 | -118.39872 | 105 ft | 17 kts | 293° |
| 2026-05-01 13:40 | 33.93661 | -118.40013 | 105 ft | 18 kts | 272° |
| 2026-05-01 13:40 | 33.93651 | -118.40166 | 105 ft | 19 kts | 264° |
| 2026-05-01 13:40 | 33.93647 | -118.40323 | 106 ft | 15 kts | 289° |
| 2026-05-01 13:41 | 33.93691 | -118.40395 | 106 ft | 11 kts | 319° |
| 2026-05-01 13:41 | 33.93750 | -118.40429 | 107 ft | 8 kts | 353° |
| 2026-05-01 13:41 | 33.93802 | -118.40441 | 107 ft | 6 kts | 329° |
| 2026-05-01 13:41 | 33.93822 | -118.40468 | 107 ft | 4 kts | 297° |
| 2026-05-01 13:42 | 33.93831 | -118.40510 | 108 ft | 6 kts | 276° |
| 2026-05-01 13:42 | 33.93823 | -118.40573 | 107 ft | 9 kts | 259° |
| 2026-05-01 13:42 | 33.93812 | -118.40655 | 108 ft | 11 kts | 261° |
| 2026-05-01 13:42 | 33.93841 | -118.40714 | 106 ft | 10 kts | 329° |
| 2026-05-01 13:43 | 33.93879 | -118.40781 | 104 ft | 10 kts | 278° |
| 2026-05-01 13:43 | 33.93876 | -118.40870 | 105 ft | 11 kts | 262° |
| 2026-05-01 13:43 | 33.93862 | -118.40971 | 105 ft | 13 kts | 263° |
| 2026-05-01 13:43 | 33.93850 | -118.41092 | 104 ft | 10 kts | 263° |
| 2026-05-01 13:44 | 33.93849 | -118.41095 | 104 ft | 0 kts | 263° |
| 2026-05-01 13:44 | 33.93845 | -118.41139 | 104 ft | 16 kts | 263° |
| 2026-05-01 13:44 | 33.93869 | -118.41171 | 104 ft | 5 kts | 6° |
| 2026-05-01 13:44 | 33.93916 | -118.41171 | 103 ft | 6 kts | 357° |
| 2026-05-01 13:45 | 33.93933 | -118.41153 | 105 ft | 2 kts | 66° |
| 2026-05-01 13:45 | 33.93941 | -118.41085 | 105 ft | 14 kts | 83° |
| 2026-05-01 13:45 | 33.93943 | -118.41060 | 103 ft | 0 kts | 86° |